sensor_id;sensor_type;location;lat;lon;timestamp;temperature;humidity
20291;DHT22;10304;51.074;13.754;2023-05-10T00:00:20;16.60;1.00
20291;DHT22;10304;51.074;13.754;2023-05-10T00:02:49;16.50;1.00
20291;DHT22;10304;51.074;13.754;2023-05-10T00:05:16;16.50;1.00
20291;DHT22;10304;51.074;13.754;2023-05-10T00:07:43;16.50;1.00
20291;DHT22;10304;51.074;13.754;2023-05-10T00:10:11;16.40;1.00
20291;DHT22;10304;51.074;13.754;2023-05-10T00:12:38;16.40;1.00
20291;DHT22;10304;51.074;13.754;2023-05-10T00:15:07;16.40;1.00
20291;DHT22;10304;51.074;13.754;2023-05-10T00:17:34;16.40;1.00
20291;DHT22;10304;51.074;13.754;2023-05-10T00:20:01;16.40;1.00
20291;DHT22;10304;51.074;13.754;2023-05-10T00:22:29;16.30;1.00
20291;DHT22;10304;51.074;13.754;2023-05-10T00:24:56;16.30;1.00
20291;DHT22;10304;51.074;13.754;2023-05-10T00:27:22;16.30;1.00
20291;DHT22;10304;51.074;13.754;2023-05-10T00:29:49;16.30;1.00
20291;DHT22;10304;51.074;13.754;2023-05-10T00:32:16;16.30;1.00
20291;DHT22;10304;51.074;13.754;2023-05-10T00:34:43;16.20;1.00
20291;DHT22;10304;51.074;13.754;2023-05-10T00:37:10;16.20;1.00
20291;DHT22;10304;51.074;13.754;2023-05-10T00:39:37;16.20;1.00
20291;DHT22;10304;51.074;13.754;2023-05-10T00:42:04;16.20;1.00
20291;DHT22;10304;51.074;13.754;2023-05-10T00:44:31;16.10;1.00
20291;DHT22;10304;51.074;13.754;2023-05-10T00:46:59;16.10;1.00
20291;DHT22;10304;51.074;13.754;2023-05-10T00:49:26;16.10;1.00
20291;DHT22;10304;51.074;13.754;2023-05-10T00:51:53;16.10;1.00
20291;DHT22;10304;51.074;13.754;2023-05-10T00:54:20;16.10;1.00
20291;DHT22;10304;51.074;13.754;2023-05-10T00:56:47;16.00;1.00
20291;DHT22;10304;51.074;13.754;2023-05-10T00:59:16;16.00;1.00
20291;DHT22;10304;51.074;13.754;2023-05-10T01:01:44;16.00;1.00
20291;DHT22;10304;51.074;13.754;2023-05-10T01:04:12;16.00;1.00
20291;DHT22;10304;51.074;13.754;2023-05-10T01:06:41;16.00;1.00
20291;DHT22;10304;51.074;13.754;2023-05-10T01:09:08;15.90;1.00
20291;DHT22;10304;51.074;13.754;2023-05-10T01:11:36;15.90;1.00
20291;DHT22;10304;51.074;13.754;2023-05-10T01:14:03;15.90;1.00
20291;DHT22;10304;51.074;13.754;2023-05-10T01:16:37;15.90;1.00
20291;DHT22;10304;51.074;13.754;2023-05-10T01:19:20;15.90;1.00
20291;DHT22;10304;51.074;13.754;2023-05-10T01:21:55;15.80;1.00
20291;DHT22;10304;51.074;13.754;2023-05-10T01:27:41;15.80;1.00
20291;DHT22;10304;51.074;13.754;2023-05-10T01:33:18;15.70;1.00
20291;DHT22;10304;51.074;13.754;2023-05-10T01:35:54;15.60;1.00
20291;DHT22;10304;51.074;13.754;2023-05-10T01:38:56;15.60;1.00
20291;DHT22;10304;51.074;13.754;2023-05-10T01:44:46;15.50;1.00
20291;DHT22;10304;51.074;13.754;2023-05-10T01:47:20;15.50;1.00
20291;DHT22;10304;51.074;13.754;2023-05-10T01:49:49;15.40;1.00
20291;DHT22;10304;51.074;13.754;2023-05-10T01:52:18;15.40;1.00
20291;DHT22;10304;51.074;13.754;2023-05-10T01:55:02;15.40;1.00
20291;DHT22;10304;51.074;13.754;2023-05-10T01:57:33;15.40;1.00
20291;DHT22;10304;51.074;13.754;2023-05-10T02:00:02;15.30;1.00
20291;DHT22;10304;51.074;13.754;2023-05-10T02:02:37;15.30;1.00
20291;DHT22;10304;51.074;13.754;2023-05-10T02:05:06;15.30;1.00
20291;DHT22;10304;51.074;13.754;2023-05-10T02:07:36;15.30;1.00
20291;DHT22;10304;51.074;13.754;2023-05-10T02:10:07;15.30;1.00
20291;DHT22;10304;51.074;13.754;2023-05-10T02:12:37;15.20;1.00
20291;DHT22;10304;51.074;13.754;2023-05-10T02:15:07;15.20;1.00
20291;DHT22;10304;51.074;13.754;2023-05-10T02:17:35;15.20;1.00
20291;DHT22;10304;51.074;13.754;2023-05-10T02:20:05;15.20;1.00
20291;DHT22;10304;51.074;13.754;2023-05-10T02:22:33;15.10;1.00
20291;DHT22;10304;51.074;13.754;2023-05-10T02:25:03;15.10;1.00
20291;DHT22;10304;51.074;13.754;2023-05-10T02:27:30;15.10;1.00
20291;DHT22;10304;51.074;13.754;2023-05-10T02:29:58;15.10;1.00
20291;DHT22;10304;51.074;13.754;2023-05-10T02:32:26;15.10;1.00
20291;DHT22;10304;51.074;13.754;2023-05-10T02:34:54;15.10;1.00
20291;DHT22;10304;51.074;13.754;2023-05-10T02:37:22;15.00;1.00
20291;DHT22;10304;51.074;13.754;2023-05-10T02:39:52;15.00;1.00
20291;DHT22;10304;51.074;13.754;2023-05-10T02:42:23;15.00;1.00
20291;DHT22;10304;51.074;13.754;2023-05-10T02:44:54;14.90;1.00
20291;DHT22;10304;51.074;13.754;2023-05-10T02:47:22;15.00;1.00
20291;DHT22;10304;51.074;13.754;2023-05-10T02:49:49;14.90;1.00
20291;DHT22;10304;51.074;13.754;2023-05-10T02:52:21;14.90;1.00
20291;DHT22;10304;51.074;13.754;2023-05-10T02:54:50;14.90;1.00
20291;DHT22;10304;51.074;13.754;2023-05-10T02:57:28;14.80;1.00
20291;DHT22;10304;51.074;13.754;2023-05-10T02:59:56;14.90;1.00
20291;DHT22;10304;51.074;13.754;2023-05-10T03:02:23;14.80;1.00
20291;DHT22;10304;51.074;13.754;2023-05-10T03:04:50;14.90;1.00
20291;DHT22;10304;51.074;13.754;2023-05-10T03:07:17;14.90;1.00
20291;DHT22;10304;51.074;13.754;2023-05-10T03:09:51;14.80;1.00
20291;DHT22;10304;51.074;13.754;2023-05-10T03:12:47;14.80;1.00
20291;DHT22;10304;51.074;13.754;2023-05-10T03:15:52;14.80;1.00
20291;DHT22;10304;51.074;13.754;2023-05-10T03:18:28;14.80;1.00
20291;DHT22;10304;51.074;13.754;2023-05-10T03:21:02;14.80;1.00
20291;DHT22;10304;51.074;13.754;2023-05-10T03:26:27;14.70;1.00
20291;DHT22;10304;51.074;13.754;2023-05-10T03:28:54;14.70;1.00
20291;DHT22;10304;51.074;13.754;2023-05-10T03:31:22;14.70;1.00
20291;DHT22;10304;51.074;13.754;2023-05-10T03:33:50;14.60;1.00
20291;DHT22;10304;51.074;13.754;2023-05-10T03:36:18;14.70;1.00
20291;DHT22;10304;51.074;13.754;2023-05-10T03:38:45;14.60;1.00
20291;DHT22;10304;51.074;13.754;2023-05-10T03:41:11;14.60;1.00
20291;DHT22;10304;51.074;13.754;2023-05-10T03:43:39;14.60;1.00
20291;DHT22;10304;51.074;13.754;2023-05-10T03:46:06;14.60;1.00
20291;DHT22;10304;51.074;13.754;2023-05-10T03:48:33;14.70;1.00
20291;DHT22;10304;51.074;13.754;2023-05-10T03:51:00;14.70;1.00
20291;DHT22;10304;51.074;13.754;2023-05-10T03:53:26;14.60;1.00
20291;DHT22;10304;51.074;13.754;2023-05-10T03:55:53;14.70;1.00
20291;DHT22;10304;51.074;13.754;2023-05-10T03:58:20;14.60;1.00
20291;DHT22;10304;51.074;13.754;2023-05-10T04:00:46;14.60;1.00
20291;DHT22;10304;51.074;13.754;2023-05-10T04:03:14;14.60;1.00
20291;DHT22;10304;51.074;13.754;2023-05-10T04:05:40;14.60;1.00
20291;DHT22;10304;51.074;13.754;2023-05-10T04:08:07;14.60;1.00
20291;DHT22;10304;51.074;13.754;2023-05-10T04:10:34;14.60;1.00
20291;DHT22;10304;51.074;13.754;2023-05-10T04:13:01;14.70;1.00
20291;DHT22;10304;51.074;13.754;2023-05-10T04:15:28;14.70;1.00
20291;DHT22;10304;51.074;13.754;2023-05-10T04:17:55;14.70;1.00
20291;DHT22;10304;51.074;13.754;2023-05-10T04:20:22;14.70;1.00
20291;DHT22;10304;51.074;13.754;2023-05-10T04:22:49;14.70;1.00
20291;DHT22;10304;51.074;13.754;2023-05-10T04:25:15;14.70;1.00
20291;DHT22;10304;51.074;13.754;2023-05-10T04:27:42;14.80;1.00
20291;DHT22;10304;51.074;13.754;2023-05-10T04:30:09;14.80;1.00
20291;DHT22;10304;51.074;13.754;2023-05-10T04:32:36;14.70;1.00
20291;DHT22;10304;51.074;13.754;2023-05-10T04:35:03;14.80;1.00
20291;DHT22;10304;51.074;13.754;2023-05-10T04:37:31;14.80;1.00
20291;DHT22;10304;51.074;13.754;2023-05-10T04:39:57;14.90;1.00
20291;DHT22;10304;51.074;13.754;2023-05-10T04:42:26;14.90;1.00
20291;DHT22;10304;51.074;13.754;2023-05-10T04:44:53;14.90;1.00
20291;DHT22;10304;51.074;13.754;2023-05-10T04:47:19;14.90;1.00
20291;DHT22;10304;51.074;13.754;2023-05-10T04:49:46;14.90;1.00
20291;DHT22;10304;51.074;13.754;2023-05-10T04:52:13;15.00;1.00
20291;DHT22;10304;51.074;13.754;2023-05-10T04:54:41;15.00;1.00
20291;DHT22;10304;51.074;13.754;2023-05-10T04:57:08;15.10;1.00
20291;DHT22;10304;51.074;13.754;2023-05-10T04:59:36;15.10;1.00
20291;DHT22;10304;51.074;13.754;2023-05-10T05:02:04;15.10;1.00
20291;DHT22;10304;51.074;13.754;2023-05-10T05:04:31;15.10;1.00
20291;DHT22;10304;51.074;13.754;2023-05-10T05:06:58;15.10;1.00
20291;DHT22;10304;51.074;13.754;2023-05-10T05:09:25;15.10;1.00
20291;DHT22;10304;51.074;13.754;2023-05-10T05:11:52;15.20;1.00
20291;DHT22;10304;51.074;13.754;2023-05-10T05:14:19;15.20;1.00
20291;DHT22;10304;51.074;13.754;2023-05-10T05:16:47;15.20;1.00
20291;DHT22;10304;51.074;13.754;2023-05-10T05:19:14;15.30;1.00
20291;DHT22;10304;51.074;13.754;2023-05-10T05:21:41;15.30;1.00
20291;DHT22;10304;51.074;13.754;2023-05-10T05:24:08;15.40;1.00
20291;DHT22;10304;51.074;13.754;2023-05-10T05:26:35;15.40;1.00
20291;DHT22;10304;51.074;13.754;2023-05-10T05:29:01;15.40;1.00
20291;DHT22;10304;51.074;13.754;2023-05-10T05:31:28;15.50;1.00
20291;DHT22;10304;51.074;13.754;2023-05-10T05:33:56;15.50;1.00
20291;DHT22;10304;51.074;13.754;2023-05-10T05:36:22;15.60;1.00
20291;DHT22;10304;51.074;13.754;2023-05-10T05:38:49;15.60;1.00
20291;DHT22;10304;51.074;13.754;2023-05-10T05:41:16;15.60;1.00
20291;DHT22;10304;51.074;13.754;2023-05-10T05:43:43;15.70;1.00
20291;DHT22;10304;51.074;13.754;2023-05-10T05:46:10;15.80;1.00
20291;DHT22;10304;51.074;13.754;2023-05-10T05:48:38;15.90;1.00
20291;DHT22;10304;51.074;13.754;2023-05-10T05:51:04;15.90;1.00
20291;DHT22;10304;51.074;13.754;2023-05-10T05:53:33;15.90;1.00
20291;DHT22;10304;51.074;13.754;2023-05-10T05:55:59;16.00;1.00
20291;DHT22;10304;51.074;13.754;2023-05-10T05:58:26;16.00;1.00
20291;DHT22;10304;51.074;13.754;2023-05-10T06:00:53;16.10;1.00
20291;DHT22;10304;51.074;13.754;2023-05-10T06:03:21;16.10;1.00
20291;DHT22;10304;51.074;13.754;2023-05-10T06:05:48;16.20;1.00
20291;DHT22;10304;51.074;13.754;2023-05-10T06:08:14;16.20;1.00
20291;DHT22;10304;51.074;13.754;2023-05-10T06:10:41;16.30;1.00
20291;DHT22;10304;51.074;13.754;2023-05-10T06:13:08;16.40;1.00
20291;DHT22;10304;51.074;13.754;2023-05-10T06:15:35;16.50;1.00
20291;DHT22;10304;51.074;13.754;2023-05-10T06:18:03;16.60;1.00
20291;DHT22;10304;51.074;13.754;2023-05-10T06:20:30;16.60;1.00
20291;DHT22;10304;51.074;13.754;2023-05-10T06:22:58;16.70;1.00
20291;DHT22;10304;51.074;13.754;2023-05-10T06:25:25;16.70;1.00
20291;DHT22;10304;51.074;13.754;2023-05-10T06:27:52;16.80;1.00
20291;DHT22;10304;51.074;13.754;2023-05-10T06:30:24;16.90;1.00
20291;DHT22;10304;51.074;13.754;2023-05-10T06:32:55;17.00;1.00
20291;DHT22;10304;51.074;13.754;2023-05-10T06:35:22;17.00;1.00
20291;DHT22;10304;51.074;13.754;2023-05-10T06:37:49;17.10;1.00
20291;DHT22;10304;51.074;13.754;2023-05-10T06:40:16;17.20;1.00
20291;DHT22;10304;51.074;13.754;2023-05-10T06:42:43;17.30;1.00
20291;DHT22;10304;51.074;13.754;2023-05-10T06:45:12;17.30;1.00
20291;DHT22;10304;51.074;13.754;2023-05-10T06:47:39;17.40;1.00
20291;DHT22;10304;51.074;13.754;2023-05-10T06:50:07;17.40;1.00
20291;DHT22;10304;51.074;13.754;2023-05-10T06:52:34;17.50;1.00
20291;DHT22;10304;51.074;13.754;2023-05-10T06:55:01;17.60;1.00
20291;DHT22;10304;51.074;13.754;2023-05-10T06:57:28;17.60;1.00
20291;DHT22;10304;51.074;13.754;2023-05-10T06:59:58;17.70;1.00
20291;DHT22;10304;51.074;13.754;2023-05-10T07:02:25;17.70;1.00
20291;DHT22;10304;51.074;13.754;2023-05-10T07:04:52;17.80;1.00
20291;DHT22;10304;51.074;13.754;2023-05-10T07:07:19;17.90;1.00
20291;DHT22;10304;51.074;13.754;2023-05-10T07:09:46;17.90;1.00
20291;DHT22;10304;51.074;13.754;2023-05-10T07:12:13;18.00;1.00
20291;DHT22;10304;51.074;13.754;2023-05-10T07:14:42;18.10;1.00
20291;DHT22;10304;51.074;13.754;2023-05-10T07:17:09;18.10;1.00
20291;DHT22;10304;51.074;13.754;2023-05-10T07:19:36;18.20;1.00
20291;DHT22;10304;51.074;13.754;2023-05-10T07:22:03;18.30;1.00
20291;DHT22;10304;51.074;13.754;2023-05-10T07:24:30;18.30;1.00
20291;DHT22;10304;51.074;13.754;2023-05-10T07:26:57;18.40;1.00
20291;DHT22;10304;51.074;13.754;2023-05-10T07:29:24;18.40;1.00
20291;DHT22;10304;51.074;13.754;2023-05-10T07:31:51;18.40;1.00
20291;DHT22;10304;51.074;13.754;2023-05-10T07:34:18;18.50;1.00
20291;DHT22;10304;51.074;13.754;2023-05-10T07:36:45;18.60;1.00
20291;DHT22;10304;51.074;13.754;2023-05-10T07:39:11;18.70;1.00
20291;DHT22;10304;51.074;13.754;2023-05-10T07:41:51;18.70;1.00
20291;DHT22;10304;51.074;13.754;2023-05-10T07:44:18;18.70;1.00
20291;DHT22;10304;51.074;13.754;2023-05-10T07:46:47;18.80;1.00
20291;DHT22;10304;51.074;13.754;2023-05-10T07:49:15;18.90;1.00
20291;DHT22;10304;51.074;13.754;2023-05-10T07:51:42;18.90;1.00
20291;DHT22;10304;51.074;13.754;2023-05-10T07:54:09;19.00;1.00
20291;DHT22;10304;51.074;13.754;2023-05-10T07:56:36;19.00;1.00
20291;DHT22;10304;51.074;13.754;2023-05-10T07:59:03;19.00;1.00
20291;DHT22;10304;51.074;13.754;2023-05-10T08:01:32;19.10;1.00
20291;DHT22;10304;51.074;13.754;2023-05-10T08:03:59;19.20;1.00
20291;DHT22;10304;51.074;13.754;2023-05-10T08:06:27;19.20;1.00
20291;DHT22;10304;51.074;13.754;2023-05-10T08:08:56;19.30;1.00
20291;DHT22;10304;51.074;13.754;2023-05-10T08:11:23;19.30;1.00
20291;DHT22;10304;51.074;13.754;2023-05-10T08:13:50;19.40;1.00
20291;DHT22;10304;51.074;13.754;2023-05-10T08:16:17;19.50;1.00
20291;DHT22;10304;51.074;13.754;2023-05-10T08:18:45;19.50;1.00
20291;DHT22;10304;51.074;13.754;2023-05-10T08:21:14;19.60;1.00
20291;DHT22;10304;51.074;13.754;2023-05-10T08:23:41;19.60;1.00
20291;DHT22;10304;51.074;13.754;2023-05-10T08:26:07;19.70;1.00
20291;DHT22;10304;51.074;13.754;2023-05-10T08:28:34;19.80;1.00
20291;DHT22;10304;51.074;13.754;2023-05-10T08:31:01;19.80;1.00
20291;DHT22;10304;51.074;13.754;2023-05-10T08:33:27;19.90;1.00
20291;DHT22;10304;51.074;13.754;2023-05-10T08:35:54;20.00;1.00
20291;DHT22;10304;51.074;13.754;2023-05-10T08:38:21;20.10;1.00
20291;DHT22;10304;51.074;13.754;2023-05-10T08:40:49;20.20;1.00
20291;DHT22;10304;51.074;13.754;2023-05-10T08:43:17;20.30;1.00
20291;DHT22;10304;51.074;13.754;2023-05-10T08:45:45;20.40;1.00
20291;DHT22;10304;51.074;13.754;2023-05-10T08:48:14;20.50;1.00
20291;DHT22;10304;51.074;13.754;2023-05-10T08:50:42;20.60;1.00
20291;DHT22;10304;51.074;13.754;2023-05-10T08:53:11;20.70;1.00
20291;DHT22;10304;51.074;13.754;2023-05-10T08:55:39;20.80;1.00
20291;DHT22;10304;51.074;13.754;2023-05-10T08:58:06;20.90;1.00
20291;DHT22;10304;51.074;13.754;2023-05-10T09:00:34;20.90;1.00
20291;DHT22;10304;51.074;13.754;2023-05-10T09:03:03;21.00;1.00
20291;DHT22;10304;51.074;13.754;2023-05-10T09:05:30;21.10;1.00
20291;DHT22;10304;51.074;13.754;2023-05-10T09:07:57;21.20;1.00
20291;DHT22;10304;51.074;13.754;2023-05-10T09:10:27;21.30;1.00
20291;DHT22;10304;51.074;13.754;2023-05-10T09:12:56;21.40;1.00
20291;DHT22;10304;51.074;13.754;2023-05-10T09:15:25;21.40;1.00
20291;DHT22;10304;51.074;13.754;2023-05-10T09:17:52;21.60;1.00
20291;DHT22;10304;51.074;13.754;2023-05-10T09:20:19;21.70;1.00
20291;DHT22;10304;51.074;13.754;2023-05-10T09:22:46;21.70;1.00
20291;DHT22;10304;51.074;13.754;2023-05-10T09:25:15;21.90;1.00
20291;DHT22;10304;51.074;13.754;2023-05-10T09:27:47;22.00;1.00
20291;DHT22;10304;51.074;13.754;2023-05-10T09:30:25;22.10;1.00
20291;DHT22;10304;51.074;13.754;2023-05-10T09:32:53;22.20;1.00
20291;DHT22;10304;51.074;13.754;2023-05-10T09:35:22;22.40;1.00
20291;DHT22;10304;51.074;13.754;2023-05-10T09:37:54;22.60;1.00
20291;DHT22;10304;51.074;13.754;2023-05-10T09:40:23;22.80;1.00
20291;DHT22;10304;51.074;13.754;2023-05-10T09:43:06;22.90;1.00
20291;DHT22;10304;51.074;13.754;2023-05-10T09:45:34;23.10;1.00
20291;DHT22;10304;51.074;13.754;2023-05-10T09:48:04;23.30;1.00
20291;DHT22;10304;51.074;13.754;2023-05-10T09:50:31;23.50;1.00
20291;DHT22;10304;51.074;13.754;2023-05-10T09:53:02;23.70;1.00
20291;DHT22;10304;51.074;13.754;2023-05-10T09:55:40;24.00;1.00
20291;DHT22;10304;51.074;13.754;2023-05-10T09:58:07;24.10;1.00
20291;DHT22;10304;51.074;13.754;2023-05-10T10:00:39;24.20;1.00
20291;DHT22;10304;51.074;13.754;2023-05-10T10:03:14;24.30;1.00
20291;DHT22;10304;51.074;13.754;2023-05-10T10:05:42;24.60;1.00
20291;DHT22;10304;51.074;13.754;2023-05-10T10:08:10;24.70;1.00
20291;DHT22;10304;51.074;13.754;2023-05-10T10:10:38;24.90;1.00
20291;DHT22;10304;51.074;13.754;2023-05-10T10:13:07;25.00;1.00
20291;DHT22;10304;51.074;13.754;2023-05-10T10:15:34;25.20;1.00
20291;DHT22;10304;51.074;13.754;2023-05-10T10:18:02;25.50;1.00
20291;DHT22;10304;51.074;13.754;2023-05-10T10:20:30;25.70;1.00
20291;DHT22;10304;51.074;13.754;2023-05-10T10:22:57;25.90;1.00
20291;DHT22;10304;51.074;13.754;2023-05-10T10:25:24;26.10;1.00
20291;DHT22;10304;51.074;13.754;2023-05-10T10:30:39;26.30;1.00
20291;DHT22;10304;51.074;13.754;2023-05-10T10:36:06;26.50;1.00
20291;DHT22;10304;51.074;13.754;2023-05-10T10:41:30;26.90;1.00
20291;DHT22;10304;51.074;13.754;2023-05-10T10:52:31;27.30;1.00
20291;DHT22;10304;51.074;13.754;2023-05-10T10:55:04;27.40;1.00
20291;DHT22;10304;51.074;13.754;2023-05-10T10:57:34;27.50;1.00
20291;DHT22;10304;51.074;13.754;2023-05-10T11:03:05;27.80;1.00
20291;DHT22;10304;51.074;13.754;2023-05-10T11:05:40;27.80;1.00
20291;DHT22;10304;51.074;13.754;2023-05-10T11:11:03;28.10;1.00
20291;DHT22;10304;51.074;13.754;2023-05-10T11:13:46;28.10;1.00
20291;DHT22;10304;51.074;13.754;2023-05-10T11:16:22;28.20;1.00
20291;DHT22;10304;51.074;13.754;2023-05-10T11:19:09;28.30;1.00
20291;DHT22;10304;51.074;13.754;2023-05-10T11:24:32;28.40;1.00
20291;DHT22;10304;51.074;13.754;2023-05-10T11:27:00;28.50;1.00
20291;DHT22;10304;51.074;13.754;2023-05-10T11:29:27;28.50;1.00
20291;DHT22;10304;51.074;13.754;2023-05-10T11:31:57;28.50;1.00
20291;DHT22;10304;51.074;13.754;2023-05-10T11:34:31;28.60;1.00
20291;DHT22;10304;51.074;13.754;2023-05-10T11:37:00;28.60;1.00
20291;DHT22;10304;51.074;13.754;2023-05-10T11:39:28;28.80;1.00
20291;DHT22;10304;51.074;13.754;2023-05-10T11:41:56;29.00;1.00
20291;DHT22;10304;51.074;13.754;2023-05-10T11:44:24;29.20;1.00
20291;DHT22;10304;51.074;13.754;2023-05-10T11:47:01;29.30;1.00
20291;DHT22;10304;51.074;13.754;2023-05-10T11:49:28;29.40;1.00
20291;DHT22;10304;51.074;13.754;2023-05-10T11:52:08;29.60;1.00
20291;DHT22;10304;51.074;13.754;2023-05-10T11:54:35;29.60;1.00
20291;DHT22;10304;51.074;13.754;2023-05-10T11:57:02;29.50;1.00
20291;DHT22;10304;51.074;13.754;2023-05-10T11:59:29;29.40;1.00
20291;DHT22;10304;51.074;13.754;2023-05-10T12:01:56;29.50;1.00
20291;DHT22;10304;51.074;13.754;2023-05-10T12:04:23;29.50;1.00
20291;DHT22;10304;51.074;13.754;2023-05-10T12:06:51;29.60;1.00
20291;DHT22;10304;51.074;13.754;2023-05-10T12:09:18;29.80;1.00
20291;DHT22;10304;51.074;13.754;2023-05-10T12:11:57;30.00;1.00
20291;DHT22;10304;51.074;13.754;2023-05-10T12:14:24;30.00;1.00
20291;DHT22;10304;51.074;13.754;2023-05-10T12:16:51;30.20;1.00
20291;DHT22;10304;51.074;13.754;2023-05-10T12:19:19;30.30;1.00
20291;DHT22;10304;51.074;13.754;2023-05-10T12:21:47;30.30;1.00
20291;DHT22;10304;51.074;13.754;2023-05-10T12:24:14;30.30;1.00
20291;DHT22;10304;51.074;13.754;2023-05-10T12:26:45;30.40;1.00
20291;DHT22;10304;51.074;13.754;2023-05-10T12:29:16;30.40;1.00
20291;DHT22;10304;51.074;13.754;2023-05-10T12:34:37;30.30;1.00
20291;DHT22;10304;51.074;13.754;2023-05-10T12:37:05;30.30;1.00
20291;DHT22;10304;51.074;13.754;2023-05-10T12:39:44;30.30;1.00
20291;DHT22;10304;51.074;13.754;2023-05-10T12:42:12;30.40;1.00
20291;DHT22;10304;51.074;13.754;2023-05-10T12:44:39;30.50;1.00
20291;DHT22;10304;51.074;13.754;2023-05-10T12:47:06;30.70;1.00
20291;DHT22;10304;51.074;13.754;2023-05-10T12:49:33;30.80;1.00
20291;DHT22;10304;51.074;13.754;2023-05-10T12:52:00;30.90;1.00
20291;DHT22;10304;51.074;13.754;2023-05-10T12:54:27;30.80;1.00
20291;DHT22;10304;51.074;13.754;2023-05-10T12:56:54;30.80;1.00
20291;DHT22;10304;51.074;13.754;2023-05-10T12:59:21;30.90;1.00
20291;DHT22;10304;51.074;13.754;2023-05-10T13:01:49;30.90;1.00
20291;DHT22;10304;51.074;13.754;2023-05-10T13:04:16;30.80;1.00
20291;DHT22;10304;51.074;13.754;2023-05-10T13:06:43;30.80;1.00
20291;DHT22;10304;51.074;13.754;2023-05-10T13:09:09;30.80;1.00
20291;DHT22;10304;51.074;13.754;2023-05-10T13:11:36;30.70;1.00
20291;DHT22;10304;51.074;13.754;2023-05-10T13:14:03;30.60;1.00
20291;DHT22;10304;51.074;13.754;2023-05-10T13:16:30;30.50;1.00
20291;DHT22;10304;51.074;13.754;2023-05-10T13:18:57;30.50;1.00
20291;DHT22;10304;51.074;13.754;2023-05-10T13:21:25;30.40;1.00
20291;DHT22;10304;51.074;13.754;2023-05-10T13:23:52;30.30;1.00
20291;DHT22;10304;51.074;13.754;2023-05-10T13:26:19;30.40;1.00
20291;DHT22;10304;51.074;13.754;2023-05-10T13:28:46;30.40;1.00
20291;DHT22;10304;51.074;13.754;2023-05-10T13:31:13;30.30;1.00
20291;DHT22;10304;51.074;13.754;2023-05-10T13:33:40;30.20;1.00
20291;DHT22;10304;51.074;13.754;2023-05-10T13:36:06;30.10;1.00
20291;DHT22;10304;51.074;13.754;2023-05-10T13:38:33;30.00;1.00
20291;DHT22;10304;51.074;13.754;2023-05-10T13:41:00;30.00;1.00
20291;DHT22;10304;51.074;13.754;2023-05-10T13:43:28;30.00;1.00
20291;DHT22;10304;51.074;13.754;2023-05-10T13:45:55;29.90;1.00
20291;DHT22;10304;51.074;13.754;2023-05-10T13:48:22;29.90;1.00
20291;DHT22;10304;51.074;13.754;2023-05-10T13:50:49;29.60;1.00
20291;DHT22;10304;51.074;13.754;2023-05-10T13:53:16;29.40;1.00
20291;DHT22;10304;51.074;13.754;2023-05-10T13:55:43;29.20;1.00
20291;DHT22;10304;51.074;13.754;2023-05-10T13:58:10;29.10;1.00
20291;DHT22;10304;51.074;13.754;2023-05-10T14:00:37;28.90;1.00
20291;DHT22;10304;51.074;13.754;2023-05-10T14:03:04;28.80;1.00
20291;DHT22;10304;51.074;13.754;2023-05-10T14:05:33;28.60;1.00
20291;DHT22;10304;51.074;13.754;2023-05-10T14:08:01;28.60;1.00
20291;DHT22;10304;51.074;13.754;2023-05-10T14:10:28;28.60;1.00
20291;DHT22;10304;51.074;13.754;2023-05-10T14:12:54;28.60;1.00
20291;DHT22;10304;51.074;13.754;2023-05-10T14:15:22;28.60;1.00
20291;DHT22;10304;51.074;13.754;2023-05-10T14:17:48;28.60;1.00
20291;DHT22;10304;51.074;13.754;2023-05-10T14:20:15;28.70;1.00
20291;DHT22;10304;51.074;13.754;2023-05-10T14:22:42;28.70;1.00
20291;DHT22;10304;51.074;13.754;2023-05-10T14:25:09;28.70;1.00
20291;DHT22;10304;51.074;13.754;2023-05-10T14:27:36;28.60;1.00
20291;DHT22;10304;51.074;13.754;2023-05-10T14:30:04;28.60;1.00
20291;DHT22;10304;51.074;13.754;2023-05-10T14:32:31;28.50;1.00
20291;DHT22;10304;51.074;13.754;2023-05-10T14:34:58;28.50;1.00
20291;DHT22;10304;51.074;13.754;2023-05-10T14:37:26;28.40;1.00
20291;DHT22;10304;51.074;13.754;2023-05-10T14:39:53;28.30;1.00
20291;DHT22;10304;51.074;13.754;2023-05-10T14:42:20;28.00;1.00
20291;DHT22;10304;51.074;13.754;2023-05-10T14:44:47;27.90;1.00
20291;DHT22;10304;51.074;13.754;2023-05-10T14:47:14;27.60;1.00
20291;DHT22;10304;51.074;13.754;2023-05-10T14:49:41;27.30;1.00
20291;DHT22;10304;51.074;13.754;2023-05-10T14:52:08;27.10;1.00
20291;DHT22;10304;51.074;13.754;2023-05-10T14:54:34;26.90;1.00
20291;DHT22;10304;51.074;13.754;2023-05-10T14:57:01;26.60;1.00
20291;DHT22;10304;51.074;13.754;2023-05-10T14:59:30;26.40;1.00
20291;DHT22;10304;51.074;13.754;2023-05-10T15:01:57;26.20;1.00
20291;DHT22;10304;51.074;13.754;2023-05-10T15:04:24;26.10;1.00
20291;DHT22;10304;51.074;13.754;2023-05-10T15:06:53;25.90;1.00
20291;DHT22;10304;51.074;13.754;2023-05-10T15:09:25;25.70;1.00
20291;DHT22;10304;51.074;13.754;2023-05-10T15:11:54;25.60;1.00
20291;DHT22;10304;51.074;13.754;2023-05-10T15:14:22;25.50;1.00
20291;DHT22;10304;51.074;13.754;2023-05-10T15:16:49;25.40;1.00
20291;DHT22;10304;51.074;13.754;2023-05-10T15:19:15;25.40;1.00
20291;DHT22;10304;51.074;13.754;2023-05-10T15:21:42;25.20;1.00
20291;DHT22;10304;51.074;13.754;2023-05-10T15:24:11;25.20;1.00
20291;DHT22;10304;51.074;13.754;2023-05-10T15:26:37;25.00;1.00
20291;DHT22;10304;51.074;13.754;2023-05-10T15:29:04;24.90;1.00
20291;DHT22;10304;51.074;13.754;2023-05-10T15:31:31;24.80;1.00
20291;DHT22;10304;51.074;13.754;2023-05-10T15:33:58;24.70;1.00
20291;DHT22;10304;51.074;13.754;2023-05-10T15:36:25;24.50;1.00
20291;DHT22;10304;51.074;13.754;2023-05-10T15:38:53;24.40;1.00
20291;DHT22;10304;51.074;13.754;2023-05-10T15:41:20;24.30;1.00
20291;DHT22;10304;51.074;13.754;2023-05-10T15:43:47;24.20;1.00
20291;DHT22;10304;51.074;13.754;2023-05-10T15:46:13;24.20;1.00
20291;DHT22;10304;51.074;13.754;2023-05-10T15:48:40;24.10;1.00
20291;DHT22;10304;51.074;13.754;2023-05-10T15:51:07;23.90;1.00
20291;DHT22;10304;51.074;13.754;2023-05-10T15:53:35;23.80;1.00
20291;DHT22;10304;51.074;13.754;2023-05-10T15:56:01;23.60;1.00
20291;DHT22;10304;51.074;13.754;2023-05-10T15:58:29;23.40;1.00
20291;DHT22;10304;51.074;13.754;2023-05-10T16:00:56;23.30;1.00
20291;DHT22;10304;51.074;13.754;2023-05-10T16:03:23;23.20;1.00
20291;DHT22;10304;51.074;13.754;2023-05-10T16:05:50;23.10;1.00
20291;DHT22;10304;51.074;13.754;2023-05-10T16:08:17;23.00;1.00
20291;DHT22;10304;51.074;13.754;2023-05-10T16:10:43;22.90;1.00
20291;DHT22;10304;51.074;13.754;2023-05-10T16:13:10;22.80;1.00
20291;DHT22;10304;51.074;13.754;2023-05-10T16:15:37;22.70;1.00
20291;DHT22;10304;51.074;13.754;2023-05-10T16:18:04;22.70;1.00